Cherokee Observed Data For Previous 48 Hours

Caption
Day and Hour Reservoir Elevation (behind dam)* Tailwater Elevation (below dam)* Average Hourly Discharge*
6/16/2018 2 AM EDT 1,070.59 921.72 111
6/16/2018 3 AM EDT 1,070.61 921.56 2,030
6/16/2018 4 AM EDT 1,070.61 921.14 0
6/16/2018 5 AM EDT 1,070.62 921.13 0
6/16/2018 6 AM EDT 1,070.63 921.13 0
6/16/2018 7 AM EDT 1,070.64 921.13 0
6/16/2018 8 AM EDT 1,070.65 921.74 113
6/16/2018 9 AM EDT 1,070.65 921.55 2,026
6/16/2018 10 AM EDT 1,070.66 921.13 0
6/16/2018 11 AM EDT 1,070.68 921.13 0
6/16/2018 12 PM EDT 1,070.67 921.12 0
6/16/2018 1 PM EDT 1,070.69 921.12 0
6/16/2018 2 PM EDT 1,070.68 921.88 129
6/16/2018 3 PM EDT 1,070.67 926.08 7,287
6/16/2018 4 PM EDT 1,070.64 927.70 11,655
6/16/2018 5 PM EDT 1,070.63 927.78 11,758
6/16/2018 6 PM EDT 1,070.60 927.77 11,786
6/16/2018 7 PM EDT 1,070.57 927.80 11,836
6/16/2018 8 PM EDT 1,070.53 927.76 11,818
6/16/2018 9 PM EDT 1,070.51 927.76 11,789
6/16/2018 10 PM EDT 1,070.50 925.78 7,505
6/16/2018 11 PM EDT 1,070.51 921.28 256
6/17/2018 12 AM EDT 1,070.49 921.14 0
6/17/2018 1 AM EDT 1,070.49 921.13 0
6/17/2018 2 AM EDT 1,070.51 921.13 0
6/17/2018 3 AM EDT 1,070.51 921.76 113
6/17/2018 4 AM EDT 1,070.51 921.56 2,023
6/17/2018 5 AM EDT 1,070.53 921.13 0
6/17/2018 6 AM EDT 1,070.55 921.13 0
6/17/2018 7 AM EDT 1,070.56 921.13 0
6/17/2018 8 AM EDT 1,070.55 921.13 0
6/17/2018 9 AM EDT 1,070.56 921.75 109
6/17/2018 10 AM EDT 1,070.57 921.55 2,024
6/17/2018 11 AM EDT 1,070.58 921.13 0
6/17/2018 12 PM EDT 1,070.59 921.13 0
6/17/2018 1 PM EDT 1,070.59 921.89 125
6/17/2018 2 PM EDT 1,070.59 925.68 7,162
6/17/2018 3 PM EDT 1,070.57 926.28 7,476
6/17/2018 4 PM EDT 1,070.55 927.68 11,655
6/17/2018 5 PM EDT 1,070.52 927.82 11,797
6/17/2018 6 PM EDT 1,070.50 927.77 11,840
6/17/2018 7 PM EDT 1,070.47 927.78 11,809
6/17/2018 8 PM EDT 1,070.44 927.79 11,827
6/17/2018 9 PM EDT 1,070.42 925.80 7,498
6/17/2018 10 PM EDT 1,070.43 921.28 254
6/17/2018 11 PM EDT 1,070.43 921.13 0
6/18/2018 12 AM EDT 1,070.43 921.13 0
6/18/2018 1 AM EDT 1,070.44 921.13 0
6/18/2018 2 AM EDT 1,070.43 921.79 114
6/18/2018 3 AM EDT 1,070.44 921.55 2,020
6/18/2018 4 AM EDT 1,070.46 921.13 0
6/18/2018 5 AM EDT 1,070.48 921.13 0
6/18/2018 6 AM EDT 1,070.49 921.13 0
6/18/2018 7 AM EDT 1,070.49 921.13 0
6/18/2018 8 AM EDT 1,070.49 921.76 109
6/18/2018 9 AM EDT 1,070.51 921.55 2,034
6/18/2018 10 AM EDT 1,070.52 921.13 0
6/18/2018 11 AM EDT 1,070.52 921.12 0
6/18/2018 12 PM EDT 1,070.52 921.13 0
6/18/2018 1 PM EDT 1,070.52 921.84 130
6/18/2018 2 PM EDT 1,070.51 926.11 7,315
6/18/2018 3 PM EDT 1,070.47 927.75 11,727
6/18/2018 4 PM EDT 1,070.46 927.74 11,790
6/18/2018 5 PM EDT 1,070.43 927.80 11,787
6/18/2018 6 PM EDT 1,070.40 927.79 11,800

Elevations are in feet above sea level. Discharges are in cubic feet per second and are reported at the end of the hour.